createdAt,value
2019-01-12T00:00:41.473Z,7.19
2019-01-12T00:03:10.541Z,7.08
2019-01-12T00:05:39.597Z,7.15
2019-01-12T00:08:08.625Z,7.12
2019-01-12T00:10:38.018Z,7.19
2019-01-12T00:13:07.163Z,7.05
2019-01-12T00:15:36.567Z,6.99
2019-01-12T00:18:05.561Z,7.13
2019-01-12T00:20:35.001Z,7.21
2019-01-12T00:23:04.373Z,7.18
2019-01-12T00:25:33.378Z,7.19
2019-01-12T00:28:02.819Z,7.20
2019-01-12T00:30:32.169Z,7.18
2019-01-12T00:33:01.755Z,7.17
2019-01-12T00:35:30.807Z,7.11
2019-01-12T00:37:59.815Z,7.04
2019-01-12T00:40:28.873Z,7.08
2019-01-12T00:42:57.954Z,7.00
2019-01-12T00:45:27.339Z,7.03
2019-01-12T00:47:56.424Z,7.11
2019-01-12T00:50:25.788Z,7.11
2019-01-12T00:52:54.853Z,7.06
2019-01-12T00:55:24.247Z,7.15
2019-01-12T00:57:53.668Z,7.04
2019-01-12T01:00:23.425Z,6.97
2019-01-12T01:02:52.483Z,6.98
2019-01-12T01:05:21.522Z,6.91
2019-01-12T01:07:50.546Z,7.18
2019-01-12T01:10:21.442Z,7.10
2019-01-12T01:12:50.474Z,7.22
2019-01-12T01:15:20.019Z,7.27
2019-01-12T01:17:49.077Z,7.35
2019-01-12T01:20:18.200Z,7.41
2019-01-12T01:22:47.263Z,7.31
2019-01-12T01:25:16.266Z,7.29
2019-01-12T01:27:45.281Z,7.35
2019-01-12T01:30:17.301Z,7.32
2019-01-12T01:32:46.608Z,7.19
2019-01-12T01:35:15.978Z,7.06
2019-01-12T01:37:45.356Z,7.12
2019-01-12T01:40:16.547Z,7.17
2019-01-12T01:42:45.594Z,7.08
2019-01-12T01:45:15.649Z,7.11
2019-01-12T01:47:44.637Z,7.07
2019-01-12T01:50:14.714Z,7.16
2019-01-12T01:52:43.747Z,7.22
2019-01-12T01:55:13.347Z,7.16
2019-01-12T01:57:42.382Z,7.11
2019-01-12T02:00:14.487Z,7.15
2019-01-12T02:02:43.556Z,7.08
2019-01-12T02:05:12.571Z,6.99
2019-01-12T02:07:41.629Z,6.99
2019-01-12T02:10:19.284Z,7.01
2019-01-12T02:12:48.667Z,7.02
2019-01-12T02:15:18.377Z,6.99
2019-01-12T02:17:48.006Z,6.98
2019-01-12T02:20:17.006Z,7.02
2019-01-12T02:22:46.332Z,6.97
2019-01-12T02:25:15.338Z,6.97
2019-01-12T02:27:44.414Z,6.94
2019-01-12T02:30:23.216Z,6.91
2019-01-12T02:32:52.614Z,6.97
2019-01-12T02:35:21.633Z,6.88
2019-01-12T02:37:50.997Z,6.85
2019-01-12T02:40:20.014Z,6.75
2019-01-12T02:42:49.074Z,6.76
2019-01-12T02:45:18.738Z,6.77
2019-01-12T02:47:48.051Z,6.80
2019-01-12T02:50:17.376Z,6.81
2019-01-12T02:52:46.402Z,6.85
2019-01-12T02:55:15.456Z,6.88
2019-01-12T02:57:44.477Z,6.88
2019-01-12T03:00:16.049Z,6.91
2019-01-12T03:02:45.364Z,6.92
2019-01-12T03:05:15.162Z,6.75
2019-01-12T03:07:44.337Z,6.77
2019-01-12T03:10:15.106Z,6.81
2019-01-12T03:12:44.428Z,6.85
2019-01-12T03:15:15.778Z,6.91
2019-01-12T03:17:45.395Z,6.84
2019-01-12T03:20:16.235Z,6.83
2019-01-12T03:22:45.652Z,6.70
2019-01-12T03:25:18.343Z,6.74
2019-01-12T03:27:45.479Z,6.90
2019-01-12T03:30:19.061Z,6.87
2019-01-12T03:32:48.124Z,6.79
2019-01-12T03:35:17.386Z,6.73
2019-01-12T03:37:47.193Z,6.71
2019-01-12T03:40:20.898Z,6.77
2019-01-12T03:42:50.045Z,6.79
2019-01-12T03:45:20.295Z,6.69
2019-01-12T03:47:49.860Z,6.66
2019-01-12T03:50:19.120Z,6.66
2019-01-12T03:52:48.358Z,6.74
2019-01-12T03:55:25.190Z,6.67
2019-01-12T03:57:48.947Z,6.69
2019-01-12T04:00:21.321Z,6.82
2019-01-12T04:02:50.379Z,6.83
2019-01-12T04:05:19.911Z,6.88
2019-01-12T04:07:49.268Z,6.87
2019-01-12T04:10:18.302Z,6.78
2019-01-12T04:12:47.769Z,6.78
2019-01-12T04:15:16.811Z,6.78
2019-01-12T04:17:45.881Z,6.75
2019-01-12T04:20:16.196Z,6.79
2019-01-12T04:22:45.250Z,6.71
2019-01-12T04:25:14.526Z,6.67
2019-01-12T04:27:43.570Z,6.70
2019-01-12T04:30:17.402Z,6.79
2019-01-12T04:32:47.239Z,6.70
2019-01-12T04:35:16.845Z,6.79
2019-01-12T04:37:46.308Z,6.74
2019-01-12T04:40:20.062Z,6.75
2019-01-12T04:42:49.140Z,6.78
2019-01-12T04:45:18.163Z,6.69
2019-01-12T04:47:47.472Z,6.71
2019-01-12T04:50:17.924Z,6.72
2019-01-12T04:52:47.325Z,6.72
2019-01-12T04:55:17.036Z,6.65
2019-01-12T04:57:46.089Z,6.69
2019-01-12T05:00:19.262Z,6.70
2019-01-12T05:02:48.589Z,6.68
2019-01-12T05:05:17.776Z,6.66
2019-01-12T05:07:47.168Z,6.64
2019-01-12T05:10:16.356Z,6.62
2019-01-12T05:12:45.678Z,6.60
2019-01-12T05:15:15.932Z,6.78
2019-01-12T05:17:44.962Z,6.73
2019-01-12T05:20:19.201Z,6.63
2019-01-12T05:22:48.560Z,6.74
2019-01-12T05:25:18.848Z,6.73
2019-01-12T05:27:47.890Z,6.78
2019-01-12T05:30:19.241Z,6.67
2019-01-12T05:32:48.256Z,6.71
2019-01-12T05:35:17.288Z,6.78
2019-01-12T05:37:46.662Z,6.74
2019-01-12T05:40:15.723Z,6.84
2019-01-12T05:42:44.804Z,6.77
2019-01-12T05:45:14.374Z,6.73
2019-01-12T05:47:43.415Z,6.67
2019-01-12T05:50:13.656Z,6.57
2019-01-12T05:52:42.992Z,6.61
2019-01-12T05:55:12.026Z,6.71
2019-01-12T05:57:41.438Z,6.65
2019-01-12T06:00:14.586Z,6.75
2019-01-12T06:02:43.598Z,6.74
2019-01-12T06:05:12.618Z,6.57
2019-01-12T06:07:41.669Z,6.66
2019-01-12T06:10:10.907Z,6.67
2019-01-12T06:12:39.940Z,6.63
2019-01-12T06:15:09.372Z,6.49
2019-01-12T06:17:38.423Z,6.58
2019-01-12T06:20:08.447Z,6.52
2019-01-12T06:22:37.456Z,6.64
2019-01-12T06:25:06.617Z,6.63
2019-01-12T06:27:36.022Z,6.59
2019-01-12T06:30:09.192Z,6.74
2019-01-12T06:32:38.247Z,6.74
2019-01-12T06:35:07.402Z,6.75
2019-01-12T06:37:36.432Z,6.65
2019-01-12T06:40:07.878Z,6.61
2019-01-12T06:42:36.937Z,6.70
2019-01-12T06:45:07.742Z,6.74
2019-01-12T06:47:36.778Z,6.59
2019-01-12T06:50:06.931Z,6.72
2019-01-12T06:52:36.350Z,6.75
2019-01-12T06:55:06.508Z,6.64
2019-01-12T06:57:35.532Z,6.83
2019-01-12T07:00:07.993Z,6.76
2019-01-12T07:02:37.429Z,6.87
2019-01-12T07:05:07.239Z,6.82
2019-01-12T07:07:36.256Z,6.83
2019-01-12T07:10:06.771Z,6.74
2019-01-12T07:12:35.790Z,6.82
2019-01-12T07:15:05.785Z,6.73
2019-01-12T07:17:34.818Z,6.76
2019-01-12T07:20:04.664Z,6.79
2019-01-12T07:22:33.671Z,6.90
2019-01-12T07:25:02.819Z,6.93
2019-01-12T07:27:31.932Z,6.90
2019-01-12T07:30:01.114Z,6.95
2019-01-12T07:32:30.141Z,6.93
2019-01-12T07:34:59.188Z,6.99
2019-01-12T07:37:28.219Z,6.99
2019-01-12T07:39:57.272Z,6.93
2019-01-12T07:42:26.802Z,6.93
2019-01-12T07:44:55.895Z,6.92
2019-01-12T07:47:25.262Z,7.13
2019-01-12T07:49:54.320Z,7.13
2019-01-12T07:52:23.633Z,7.09
2019-01-12T07:54:52.979Z,7.17
2019-01-12T07:57:22.008Z,7.19
2019-01-12T07:59:51.071Z,7.17
2019-01-12T08:02:20.120Z,7.24
2019-01-12T08:04:49.217Z,7.18
2019-01-12T08:07:18.258Z,7.23
2019-01-12T08:09:47.487Z,7.26
2019-01-12T08:12:16.510Z,7.36
2019-01-12T08:14:45.570Z,7.44
2019-01-12T08:17:14.575Z,7.44
2019-01-12T08:19:44.013Z,7.37
2019-01-12T08:22:13.052Z,7.58
2019-01-12T08:24:42.217Z,7.59
2019-01-12T08:27:11.549Z,7.63
2019-01-12T08:29:40.988Z,7.63
2019-01-12T08:32:10.412Z,7.65
2019-01-12T08:34:39.466Z,7.65
2019-01-12T08:37:08.537Z,7.78
2019-01-12T08:39:37.930Z,7.75
2019-01-12T08:42:07.014Z,7.80
2019-01-12T08:44:36.408Z,7.75
2019-01-12T08:47:05.871Z,7.70
2019-01-12T08:49:34.916Z,7.80
2019-01-12T08:52:03.951Z,7.89
2019-01-12T08:54:33.311Z,7.78
2019-01-12T08:57:02.338Z,7.89
2019-01-12T08:59:31.427Z,7.91
2019-01-12T09:02:00.579Z,8.00
2019-01-12T09:04:29.665Z,8.01
2019-01-12T09:06:58.733Z,8.02
2019-01-12T09:09:27.792Z,8.02
2019-01-12T09:11:56.860Z,8.03
2019-01-12T09:14:25.966Z,7.96
2019-01-12T09:16:56.028Z,8.07
2019-01-12T09:19:25.101Z,8.11
2019-01-12T09:21:54.195Z,8.08
2019-01-12T09:24:23.354Z,8.07
2019-01-12T09:26:52.363Z,8.07
2019-01-12T09:29:21.762Z,8.11
2019-01-12T09:31:51.171Z,8.12
2019-01-12T09:34:20.236Z,8.01
2019-01-12T09:36:49.691Z,7.97
2019-01-12T09:39:18.873Z,8.03
2019-01-12T09:41:47.901Z,8.13
2019-01-12T09:44:16.955Z,8.24
2019-01-12T09:46:46.463Z,8.20
2019-01-12T09:49:15.576Z,8.15
2019-01-12T09:51:44.648Z,8.21
2019-01-12T09:54:14.092Z,8.17
2019-01-12T09:56:43.446Z,8.17
2019-01-12T09:59:12.921Z,8.16
2019-01-12T10:01:42.059Z,8.23
2019-01-12T10:04:11.407Z,8.15
2019-01-12T10:06:40.772Z,8.05
2019-01-12T10:09:09.789Z,8.19
2019-01-12T10:11:38.859Z,8.31
2019-01-12T10:14:07.960Z,8.49
2019-01-12T10:16:37.388Z,8.49
2019-01-12T10:19:06.755Z,8.49
2019-01-12T10:21:35.952Z,8.54
2019-01-12T10:24:05.043Z,8.62
2019-01-12T10:26:34.509Z,8.66
2019-01-12T10:29:03.568Z,8.70
2019-01-12T10:31:33.373Z,8.69
2019-01-12T10:34:03.203Z,8.59
2019-01-12T10:36:32.615Z,8.59
2019-01-12T10:39:01.641Z,8.60
2019-01-12T10:41:31.127Z,8.66
2019-01-12T10:44:00.233Z,8.71
2019-01-12T10:46:29.283Z,8.80
2019-01-12T10:48:58.443Z,8.79
2019-01-12T10:51:27.550Z,8.89
2019-01-12T10:53:56.645Z,8.84
2019-01-12T10:56:25.764Z,8.80
2019-01-12T10:58:55.879Z,8.64
2019-01-12T11:01:25.085Z,8.73
2019-01-12T11:03:54.136Z,8.76
2019-01-12T11:06:23.317Z,8.75
2019-01-12T11:08:52.668Z,8.69
2019-01-12T11:11:22.062Z,8.72
2019-01-12T11:13:51.205Z,8.70
2019-01-12T11:16:20.410Z,8.74
2019-01-12T11:18:49.804Z,8.78
2019-01-12T11:21:18.963Z,8.85
2019-01-12T11:23:48.067Z,8.89
2019-01-12T11:26:17.462Z,8.79
2019-01-12T11:28:47.025Z,8.84
2019-01-12T11:31:19.798Z,8.80
2019-01-12T11:33:47.299Z,8.81
2019-01-12T11:36:16.456Z,8.86
2019-01-12T11:38:45.562Z,8.95
2019-01-12T11:41:14.744Z,8.82
2019-01-12T11:43:44.143Z,8.87
2019-01-12T11:46:13.471Z,8.93
2019-01-12T11:48:43.650Z,8.95
2019-01-12T11:51:14.281Z,8.97
2019-01-12T11:53:43.374Z,8.90
2019-01-12T11:56:12.833Z,9.02
2019-01-12T11:58:41.916Z,8.93
2019-01-12T12:01:10.989Z,9.12
2019-01-12T12:03:40.369Z,8.96
2019-01-12T12:06:10.123Z,9.04
2019-01-12T12:08:39.947Z,9.05
2019-01-12T12:11:09.334Z,9.04
2019-01-12T12:13:38.412Z,9.03
2019-01-12T12:16:07.615Z,8.91
2019-01-12T12:18:37.010Z,8.86
2019-01-12T12:21:06.457Z,8.99
2019-01-12T12:23:35.623Z,8.95
2019-01-12T12:26:04.827Z,8.83
2019-01-12T12:28:34.170Z,8.77
2019-01-12T12:31:03.329Z,8.81
2019-01-12T12:33:32.477Z,8.77
2019-01-12T12:36:01.875Z,8.72
2019-01-12T12:38:30.987Z,8.77
2019-01-12T12:41:00.391Z,8.79
2019-01-12T12:43:29.517Z,8.81
2019-01-12T12:45:58.734Z,8.84
2019-01-12T12:48:27.996Z,8.99
2019-01-12T12:50:57.428Z,8.94
2019-01-12T12:53:26.438Z,8.92
2019-01-12T12:55:55.973Z,8.85
2019-01-12T12:58:25.378Z,9.03
2019-01-12T13:00:54.861Z,9.08
2019-01-12T13:03:24.053Z,9.05
2019-01-12T13:05:53.372Z,9.06
2019-01-12T13:08:22.503Z,9.19
2019-01-12T13:10:51.592Z,9.19
2019-01-12T13:13:21.409Z,9.18
2019-01-12T13:15:50.487Z,9.18
2019-01-12T13:18:20.288Z,9.22
2019-01-12T13:20:49.446Z,9.23
2019-01-12T13:23:20.116Z,9.33
2019-01-12T13:25:49.869Z,9.32
2019-01-12T13:28:19.289Z,9.34
2019-01-12T13:30:48.876Z,9.30
2019-01-12T13:33:17.946Z,9.31
2019-01-12T13:35:48.675Z,9.33
2019-01-12T13:38:18.112Z,9.31
2019-01-12T13:40:47.223Z,9.37
2019-01-12T13:43:16.575Z,9.36
2019-01-12T13:45:46.050Z,9.34
2019-01-12T13:48:15.147Z,9.43
2019-01-12T13:50:44.505Z,9.49
2019-01-12T13:53:13.889Z,9.42
2019-01-12T13:55:42.927Z,9.45
2019-01-12T13:58:11.961Z,9.43
2019-01-12T14:00:41.658Z,9.52
2019-01-12T14:03:10.701Z,9.53
2019-01-12T14:05:39.789Z,9.60
2019-01-12T14:08:08.969Z,9.61
2019-01-12T14:10:38.450Z,9.57
2019-01-12T14:13:08.018Z,9.53
2019-01-12T14:15:37.226Z,9.56
2019-01-12T14:18:06.516Z,9.44
2019-01-12T14:20:37.763Z,9.51
2019-01-12T14:23:07.378Z,9.48
2019-01-12T14:25:36.908Z,9.37
2019-01-12T14:28:06.643Z,9.38
2019-01-12T14:30:35.719Z,9.51
2019-01-12T14:33:05.605Z,9.44
2019-01-12T14:35:35.023Z,9.48
2019-01-12T14:38:04.305Z,9.48
2019-01-12T14:40:33.668Z,9.43
2019-01-12T14:43:02.747Z,9.29
2019-01-12T14:45:33.728Z,9.33
2019-01-12T14:48:02.999Z,9.27
2019-01-12T14:50:32.481Z,9.30
2019-01-12T14:53:01.872Z,9.36
2019-01-12T14:55:31.537Z,9.28
2019-01-12T14:58:02.594Z,9.19
2019-01-12T15:00:31.349Z,9.19
2019-01-12T15:03:00.742Z,9.26
2019-01-12T15:05:33.992Z,9.35
2019-01-12T15:08:03.034Z,9.33
2019-01-12T15:10:33.430Z,9.27
2019-01-12T15:13:02.461Z,9.29
2019-01-12T15:15:31.892Z,9.32
2019-01-12T15:18:00.993Z,9.23
2019-01-12T15:20:30.879Z,9.21
2019-01-12T15:23:00.755Z,9.16
2019-01-12T15:25:30.907Z,9.20
2019-01-12T15:28:00.990Z,9.13
2019-01-12T15:30:31.830Z,9.24
2019-01-12T15:33:11.279Z,9.33
2019-01-12T15:35:42.187Z,9.23
2019-01-12T15:38:11.285Z,9.19
2019-01-12T15:40:41.994Z,9.19
2019-01-12T15:43:11.387Z,9.15
2019-01-12T15:45:43.873Z,9.12
2019-01-12T15:48:12.935Z,9.21
2019-01-12T15:50:41.987Z,9.21
2019-01-12T15:53:11.019Z,9.10
2019-01-12T15:55:40.541Z,9.20
2019-01-12T15:58:16.160Z,9.24
2019-01-12T16:00:43.525Z,9.16
2019-01-12T16:03:12.605Z,9.13
2019-01-12T16:05:42.002Z,9.18
2019-01-12T16:08:11.086Z,9.18
2019-01-12T16:10:40.518Z,9.09
2019-01-12T16:13:09.631Z,9.05
2019-01-12T16:15:41.025Z,9.10
2019-01-12T16:18:10.139Z,9.03
2019-01-12T16:20:43.503Z,9.07
2019-01-12T16:23:13.832Z,9.12
2019-01-12T16:25:43.985Z,9.16
2019-01-12T16:28:13.478Z,9.05
2019-01-12T16:30:42.959Z,9.10
2019-01-12T16:33:12.360Z,9.07
2019-01-12T16:35:45.265Z,9.14
2019-01-12T16:38:14.574Z,9.05
2019-01-12T16:40:43.907Z,8.98
2019-01-12T16:43:13.045Z,9.02
2019-01-12T16:45:42.084Z,8.93
2019-01-12T16:48:11.141Z,9.06
2019-01-12T16:50:41.220Z,9.01
2019-01-12T16:53:10.595Z,9.00
2019-01-12T16:55:39.988Z,8.95
2019-01-12T16:58:09.119Z,8.92
2019-01-12T17:00:38.547Z,8.98
2019-01-12T17:03:07.821Z,8.98
2019-01-12T17:05:36.973Z,8.94
2019-01-12T17:08:06.366Z,8.98
2019-01-12T17:10:35.926Z,8.99
2019-01-12T17:13:05.609Z,8.97
2019-01-12T17:15:35.516Z,8.99
2019-01-12T17:18:05.280Z,8.98
2019-01-12T17:20:34.276Z,8.94
2019-01-12T17:23:04.942Z,8.94
2019-01-12T17:25:34.457Z,8.93
2019-01-12T17:28:03.533Z,8.93
2019-01-12T17:30:32.579Z,8.93
2019-01-12T17:33:01.630Z,8.85
2019-01-12T17:35:30.689Z,8.90
2019-01-12T17:38:00.210Z,8.95
2019-01-12T17:40:29.370Z,8.91
2019-01-12T17:42:58.452Z,8.84
2019-01-12T17:45:27.993Z,8.90
2019-01-12T17:47:57.083Z,8.87
2019-01-12T17:50:27.668Z,8.91
2019-01-12T17:52:56.991Z,8.70
2019-01-12T17:55:27.493Z,8.70
2019-01-12T17:57:57.228Z,8.84
2019-01-12T18:00:33.478Z,8.83
2019-01-12T18:03:02.637Z,8.91
2019-01-12T18:05:32.208Z,8.88
2019-01-12T18:08:01.540Z,8.93
2019-01-12T18:10:30.616Z,8.91
2019-01-12T18:12:59.960Z,8.83
2019-01-12T18:15:29.036Z,8.85
2019-01-12T18:17:58.098Z,8.80
2019-01-12T18:20:27.136Z,8.84
2019-01-12T18:22:56.206Z,8.80
2019-01-12T18:25:25.287Z,8.77
2019-01-12T18:27:54.792Z,8.80
2019-01-12T18:30:24.158Z,8.91
2019-01-12T18:32:53.525Z,8.84
2019-01-12T18:35:22.832Z,8.78
2019-01-12T18:37:51.892Z,8.71
2019-01-12T18:40:20.932Z,8.69
2019-01-12T18:42:50.060Z,8.70
2019-01-12T18:45:19.470Z,8.58
2019-01-12T18:47:48.518Z,8.48
2019-01-12T18:50:19.833Z,8.35
2019-01-12T18:52:48.954Z,8.27
2019-01-12T18:55:18.628Z,8.26
2019-01-12T18:57:47.957Z,8.27
2019-01-12T19:00:22.068Z,8.31
2019-01-12T19:02:51.528Z,8.28
2019-01-12T19:05:20.633Z,8.38
2019-01-12T19:07:49.950Z,8.32
2019-01-12T19:10:20.224Z,8.41
2019-01-12T19:12:49.755Z,8.67
2019-01-12T19:15:29.992Z,8.64
2019-01-12T19:17:59.739Z,8.62
2019-01-12T19:20:28.866Z,8.72
2019-01-12T19:22:58.178Z,8.69
2019-01-12T19:25:27.215Z,8.92
2019-01-12T19:27:56.283Z,8.75
2019-01-12T19:30:26.363Z,8.83
2019-01-12T19:32:55.502Z,8.94
2019-01-12T19:35:24.535Z,8.96
2019-01-12T19:37:53.652Z,8.97
2019-01-12T19:40:24.811Z,8.96
2019-01-12T19:42:53.992Z,9.09
2019-01-12T19:45:23.386Z,9.04
2019-01-12T19:47:52.526Z,9.06
2019-01-12T19:50:25.919Z,9.05
2019-01-12T19:52:55.191Z,9.02
2019-01-12T19:55:24.237Z,8.97
2019-01-12T19:57:53.257Z,9.04
2019-01-12T20:00:24.986Z,9.01
2019-01-12T20:02:54.332Z,9.10
2019-01-12T20:05:23.660Z,9.17
2019-01-12T20:07:52.735Z,9.11
2019-01-12T20:10:22.017Z,9.11
2019-01-12T20:12:51.247Z,9.18
2019-01-12T20:15:22.641Z,9.07
2019-01-12T20:17:51.893Z,9.02
2019-01-12T20:20:21.276Z,9.11
2019-01-12T20:22:50.942Z,9.26
2019-01-12T20:25:31.574Z,9.23
2019-01-12T20:28:03.553Z,9.23
2019-01-12T20:30:59.380Z,9.18
2019-01-12T20:33:53.113Z,9.09
2019-01-12T20:36:52.832Z,9.13
2019-01-12T20:39:48.846Z,9.11
2019-01-12T20:42:53.637Z,9.19
2019-01-12T20:45:53.590Z,9.11
2019-01-12T20:48:48.138Z,9.14
2019-01-12T20:51:55.491Z,9.05
2019-01-12T20:55:14.728Z,9.06
2019-01-12T20:58:13.876Z,9.07
2019-01-12T21:01:07.633Z,9.03
2019-01-12T21:04:19.787Z,9.02
2019-01-12T21:07:33.602Z,9.13
2019-01-12T21:10:40.301Z,9.05
2019-01-12T21:13:43.915Z,9.02
2019-01-12T21:16:17.400Z,9.05
2019-01-12T21:18:46.556Z,9.03
2019-01-12T21:21:16.083Z,9.04
2019-01-12T21:23:45.143Z,9.13
2019-01-12T21:26:14.223Z,9.09
2019-01-12T21:28:43.716Z,9.10
2019-01-12T21:31:13.246Z,9.06
2019-01-12T21:33:42.325Z,9.13
2019-01-12T21:36:11.452Z,9.01
2019-01-12T21:38:40.574Z,8.95
2019-01-12T21:41:09.729Z,9.10
2019-01-12T21:43:39.882Z,8.94
2019-01-12T21:46:09.264Z,9.01
2019-01-12T21:48:38.436Z,8.98
2019-01-12T21:51:08.166Z,9.02
2019-01-12T21:53:37.190Z,9.00
2019-01-12T21:56:06.918Z,9.06
2019-01-12T21:58:36.310Z,9.03
2019-01-12T22:01:05.516Z,9.02
2019-01-12T22:03:34.895Z,8.98
2019-01-12T22:06:03.929Z,9.13
2019-01-12T22:08:33.364Z,9.02
2019-01-12T22:11:02.428Z,9.04
2019-01-12T22:13:31.544Z,8.93
2019-01-12T22:16:01.054Z,8.96
2019-01-12T22:18:30.476Z,8.98
2019-01-12T22:20:59.580Z,8.96
2019-01-12T22:23:29.866Z,9.03
2019-01-12T22:25:58.978Z,8.94
2019-01-12T22:28:28.034Z,8.95
2019-01-12T22:30:57.391Z,8.93
2019-01-12T22:33:26.822Z,9.02
2019-01-12T22:35:55.994Z,9.05
2019-01-12T22:38:25.132Z,8.93
2019-01-12T22:40:54.271Z,8.92
2019-01-12T22:43:24.811Z,8.90
2019-01-12T22:45:54.353Z,8.93
2019-01-12T22:48:23.393Z,8.87
2019-01-12T22:50:52.842Z,8.78
2019-01-12T22:53:21.864Z,8.84
2019-01-12T22:55:51.341Z,8.69
2019-01-12T22:58:20.566Z,8.70
2019-01-12T23:01:26.903Z,8.69
2019-01-12T23:03:59.554Z,8.68
2019-01-12T23:06:29.330Z,8.60
2019-01-12T23:08:58.956Z,8.60
2019-01-12T23:11:28.282Z,8.48
2019-01-12T23:13:58.340Z,8.56
2019-01-12T23:16:28.012Z,8.63
2019-01-12T23:18:57.395Z,8.59
2019-01-12T23:21:26.468Z,8.58
2019-01-12T23:23:55.476Z,8.62
2019-01-12T23:26:24.554Z,8.60
2019-01-12T23:28:53.631Z,8.58
2019-01-12T23:31:22.648Z,8.57
2019-01-12T23:33:51.750Z,8.55
2019-01-12T23:36:20.798Z,8.51
2019-01-12T23:38:49.850Z,8.51
2019-01-12T23:41:18.856Z,8.46
2019-01-12T23:43:47.893Z,8.44
2019-01-12T23:46:16.986Z,8.48
2019-01-12T23:48:46.001Z,8.41
2019-01-12T23:51:15.178Z,8.43
2019-01-12T23:53:44.252Z,8.44
2019-01-12T23:56:13.330Z,8.42
2019-01-12T23:58:42.389Z,8.52
